Terminal Aerodrome Forecast
Issued by NWS

Home | Current Version | Previous Version | Text Only | Print | Product List | Glossary Off
Versions: 1 2 3 4 5 6 7 8 9 10 11 12 13 14 15 16 17 18
000 FTUS41 KBOX 220540 TAFBED TAF KBED 220540Z 2206/2306 22004KT P6SM SCT180 FM221400 21012KT P6SM SCT060 FM221800 21012G22KT P6SM SCT060 FM222300 22012KT P6SM SCT050=

USA.gov is the U.S. government's official web portal to all federal, state and local government web resources and services.